createdAt,value
2018-08-18T00:00:55.600Z,21.30
2018-08-18T00:03:21.960Z,21.31
2018-08-18T00:05:48.317Z,21.32
2018-08-18T00:08:14.655Z,21.25
2018-08-18T00:10:41.002Z,21.32
2018-08-18T00:13:07.353Z,21.30
2018-08-18T00:15:33.768Z,21.25
2018-08-18T00:18:00.093Z,21.24
2018-08-18T00:20:26.438Z,21.32
2018-08-18T00:22:52.782Z,21.24
2018-08-18T00:25:19.130Z,21.20
2018-08-18T00:27:45.513Z,21.22
2018-08-18T00:30:11.854Z,21.23
2018-08-18T00:32:38.226Z,21.18
2018-08-18T00:35:04.614Z,21.21
2018-08-18T00:37:30.963Z,21.27
2018-08-18T00:39:57.282Z,21.22
2018-08-18T00:42:23.606Z,21.25
2018-08-18T00:44:49.979Z,21.27
2018-08-18T00:47:16.318Z,21.11
2018-08-18T00:49:42.681Z,21.16
2018-08-18T00:52:09.011Z,21.11
2018-08-18T00:54:35.343Z,21.15
2018-08-18T00:57:01.787Z,21.20
2018-08-18T00:59:28.117Z,21.19
2018-08-18T01:01:54.455Z,21.14
2018-08-18T01:04:20.878Z,21.17
2018-08-18T01:06:47.315Z,21.09
2018-08-18T01:09:13.673Z,21.10
2018-08-18T01:11:40.111Z,21.15
2018-08-18T01:14:06.461Z,21.18
2018-08-18T01:16:32.767Z,21.04
2018-08-18T01:18:59.102Z,21.05
2018-08-18T01:21:25.521Z,21.10
2018-08-18T01:23:52.033Z,21.04
2018-08-18T01:26:18.359Z,21.07
2018-08-18T01:28:44.692Z,21.06
2018-08-18T01:31:11.032Z,21.07
2018-08-18T01:33:37.375Z,21.04
2018-08-18T01:36:03.735Z,21.06
2018-08-18T01:38:30.120Z,21.07
2018-08-18T01:40:56.520Z,20.96
2018-08-18T01:43:22.907Z,21.02
2018-08-18T01:45:49.245Z,21.08
2018-08-18T01:48:15.640Z,21.00
2018-08-18T01:50:42.180Z,20.92
2018-08-18T01:53:08.536Z,20.98
2018-08-18T01:55:35.014Z,21.02
2018-08-18T01:58:01.403Z,21.06
2018-08-18T02:00:27.801Z,20.98
2018-08-18T02:02:54.233Z,20.92
2018-08-18T02:05:20.599Z,20.99
2018-08-18T02:07:46.922Z,21.00
2018-08-18T02:10:13.243Z,20.99
2018-08-18T02:12:39.598Z,20.88
2018-08-18T02:15:05.990Z,20.95
2018-08-18T02:17:32.365Z,20.89
2018-08-18T02:19:58.798Z,20.93
2018-08-18T02:22:25.112Z,20.90
2018-08-18T02:24:51.448Z,20.83
2018-08-18T02:27:17.818Z,20.89
2018-08-18T02:29:44.189Z,20.86
2018-08-18T02:32:10.592Z,20.89
2018-08-18T02:34:36.938Z,20.92
2018-08-18T02:37:03.300Z,20.92
2018-08-18T02:39:29.811Z,20.94
2018-08-18T02:41:56.159Z,20.91
2018-08-18T02:44:22.517Z,20.94
2018-08-18T02:46:48.898Z,20.79
2018-08-18T02:49:15.215Z,20.92
2018-08-18T02:51:41.558Z,20.80
2018-08-18T02:54:07.900Z,20.83
2018-08-18T02:56:34.238Z,20.84
2018-08-18T02:59:00.599Z,20.81
2018-08-18T03:01:26.983Z,20.80
2018-08-18T03:03:53.350Z,20.69
2018-08-18T03:06:19.747Z,20.87
2018-08-18T03:08:46.095Z,20.72
2018-08-18T03:11:12.441Z,20.79
2018-08-18T03:13:38.787Z,20.75
2018-08-18T03:16:05.120Z,20.77
2018-08-18T03:18:31.482Z,20.76
2018-08-18T03:20:57.821Z,20.77
2018-08-18T03:23:24.226Z,20.86
2018-08-18T03:25:50.592Z,20.83
2018-08-18T03:28:16.954Z,20.77
2018-08-18T03:30:43.298Z,20.87
2018-08-18T03:33:09.643Z,20.77
2018-08-18T03:35:35.992Z,20.74
2018-08-18T03:38:02.460Z,20.73
2018-08-18T03:40:28.810Z,20.68
2018-08-18T03:42:55.137Z,20.73
2018-08-18T03:45:21.487Z,20.69
2018-08-18T03:47:47.806Z,20.74
2018-08-18T03:50:14.136Z,20.71
2018-08-18T03:52:40.500Z,20.77
2018-08-18T03:55:06.873Z,20.74
2018-08-18T03:57:33.237Z,20.70
2018-08-18T03:59:59.597Z,20.76
2018-08-18T04:02:25.999Z,20.73
2018-08-18T04:04:52.389Z,20.78
2018-08-18T04:07:18.732Z,20.80
2018-08-18T04:09:45.071Z,20.77
2018-08-18T04:12:11.427Z,20.73
2018-08-18T04:14:37.809Z,20.71
2018-08-18T04:17:04.163Z,20.73
2018-08-18T04:19:30.679Z,20.77
2018-08-18T04:21:57.003Z,20.74
2018-08-18T04:24:23.451Z,20.83
2018-08-18T04:26:49.779Z,20.77
2018-08-18T04:29:16.190Z,20.90
2018-08-18T04:31:42.521Z,20.95
2018-08-18T04:34:08.851Z,21.06
2018-08-18T04:36:35.188Z,21.05
2018-08-18T04:39:01.519Z,21.10
2018-08-18T04:41:27.853Z,21.04
2018-08-18T04:43:54.255Z,21.10
2018-08-18T04:46:20.651Z,21.09
2018-08-18T04:48:47.025Z,21.13
2018-08-18T04:51:13.478Z,21.09
2018-08-18T04:53:39.830Z,21.04
2018-08-18T04:56:06.176Z,21.09
2018-08-18T04:58:32.499Z,21.07
2018-08-18T05:00:58.829Z,21.07
2018-08-18T05:03:25.238Z,21.10
2018-08-18T05:05:51.663Z,21.10
2018-08-18T05:08:17.993Z,21.11
2018-08-18T05:10:44.380Z,21.13
2018-08-18T05:13:10.756Z,21.14
2018-08-18T05:15:37.086Z,21.09
2018-08-18T05:18:03.455Z,21.13
2018-08-18T05:20:29.803Z,21.09
2018-08-18T05:22:56.168Z,21.09
2018-08-18T05:25:22.517Z,21.13
2018-08-18T05:27:48.868Z,21.16
2018-08-18T05:30:15.373Z,21.14
2018-08-18T05:32:41.743Z,21.15
2018-08-18T05:35:08.173Z,21.14
2018-08-18T05:37:34.503Z,21.15
2018-08-18T05:40:00.851Z,21.17
2018-08-18T05:42:27.194Z,21.17
2018-08-18T05:44:53.603Z,21.17
2018-08-18T05:47:20.055Z,21.19
2018-08-18T05:49:46.431Z,21.20
2018-08-18T05:52:12.762Z,21.21
2018-08-18T05:54:39.106Z,21.23
2018-08-18T05:57:05.451Z,21.22
2018-08-18T05:59:31.806Z,21.24
2018-08-18T06:01:58.138Z,21.24
2018-08-18T06:04:25.666Z,21.23
2018-08-18T06:06:52.062Z,21.25
2018-08-18T06:09:18.384Z,21.29
2018-08-18T06:11:44.767Z,21.25
2018-08-18T06:14:11.114Z,21.29
2018-08-18T06:16:37.564Z,21.30
2018-08-18T06:19:03.892Z,21.34
2018-08-18T06:21:30.263Z,21.34
2018-08-18T06:23:56.594Z,21.34
2018-08-18T06:26:22.949Z,21.36
2018-08-18T06:28:49.367Z,21.34
2018-08-18T06:31:15.725Z,21.39
2018-08-18T06:33:42.116Z,21.37
2018-08-18T06:36:08.505Z,21.37
2018-08-18T06:38:34.867Z,21.40
2018-08-18T06:41:01.272Z,21.40
2018-08-18T06:43:27.656Z,21.42
2018-08-18T06:45:54.139Z,21.43
2018-08-18T06:48:20.469Z,21.44
2018-08-18T06:50:46.826Z,21.46
2018-08-18T06:53:13.151Z,21.45
2018-08-18T06:55:39.537Z,21.48
2018-08-18T06:58:05.934Z,21.50
2018-08-18T07:00:32.419Z,21.49
2018-08-18T07:02:58.744Z,21.47
2018-08-18T07:05:25.134Z,21.48
2018-08-18T07:07:51.472Z,21.51
2018-08-18T07:10:17.824Z,21.55
2018-08-18T07:12:44.266Z,21.51
2018-08-18T07:15:10.675Z,21.52
2018-08-18T07:17:37.005Z,21.52
2018-08-18T07:20:03.357Z,21.52
2018-08-18T07:22:29.733Z,21.51
2018-08-18T07:24:56.096Z,21.51
2018-08-18T07:27:22.511Z,21.54
2018-08-18T07:29:48.847Z,21.58
2018-08-18T07:32:15.257Z,21.52
2018-08-18T07:34:41.582Z,21.55
2018-08-18T07:37:07.975Z,21.57
2018-08-18T07:39:34.316Z,21.54
2018-08-18T07:42:00.732Z,21.57
2018-08-18T07:44:27.113Z,21.57
2018-08-18T07:46:53.508Z,21.55
2018-08-18T07:49:19.887Z,21.57
2018-08-18T07:51:46.260Z,21.54
2018-08-18T07:54:12.633Z,21.58
2018-08-18T07:56:39.036Z,21.58
2018-08-18T07:59:05.396Z,21.57
2018-08-18T08:01:31.727Z,21.55
2018-08-18T08:03:58.117Z,21.58
2018-08-18T08:06:24.460Z,21.57
2018-08-18T08:08:50.922Z,21.58
2018-08-18T08:11:17.251Z,21.54
2018-08-18T08:13:43.589Z,21.54
2018-08-18T08:16:09.949Z,21.57
2018-08-18T08:18:36.282Z,21.55
2018-08-18T08:21:02.674Z,21.55
2018-08-18T08:23:29.021Z,21.53
2018-08-18T08:25:55.487Z,21.53
2018-08-18T08:28:21.819Z,21.53
2018-08-18T08:30:48.172Z,21.52
2018-08-18T08:33:14.574Z,21.50
2018-08-18T08:35:40.930Z,21.51
2018-08-18T08:38:07.363Z,21.53
2018-08-18T08:40:33.729Z,21.52
2018-08-18T08:43:00.104Z,21.48
2018-08-18T08:45:26.490Z,21.49
2018-08-18T08:47:52.844Z,21.49
2018-08-18T08:50:19.249Z,21.48
2018-08-18T08:52:45.578Z,21.47
2018-08-18T08:55:11.999Z,21.48
2018-08-18T08:57:38.327Z,21.47
2018-08-18T09:00:04.685Z,21.47
2018-08-18T09:02:31.079Z,21.43
2018-08-18T09:04:57.463Z,21.44
2018-08-18T09:07:23.800Z,21.44
2018-08-18T09:09:50.202Z,21.44
2018-08-18T09:12:16.543Z,21.43
2018-08-18T09:14:42.876Z,21.44
2018-08-18T09:17:09.221Z,21.43
2018-08-18T09:19:35.548Z,21.42
2018-08-18T09:22:01.882Z,21.37
2018-08-18T09:24:28.286Z,21.35
2018-08-18T09:26:54.692Z,21.39
2018-08-18T09:29:21.147Z,21.34
2018-08-18T09:31:47.507Z,21.35
2018-08-18T09:34:13.889Z,21.33
2018-08-18T09:36:40.263Z,21.39
2018-08-18T09:39:06.654Z,21.40
2018-08-18T09:41:32.982Z,21.32
2018-08-18T09:43:59.415Z,21.36
2018-08-18T09:46:25.813Z,21.33
2018-08-18T09:48:52.140Z,21.33
2018-08-18T09:51:18.528Z,21.33
2018-08-18T09:53:44.953Z,21.32
2018-08-18T09:56:11.318Z,21.31
2018-08-18T09:58:37.679Z,21.37
2018-08-18T10:01:04.058Z,21.36
2018-08-18T10:03:30.466Z,21.32
2018-08-18T10:05:56.819Z,21.33
2018-08-18T10:08:23.238Z,21.33
2018-08-18T10:10:49.609Z,21.35
2018-08-18T10:13:15.964Z,21.35
2018-08-18T10:15:42.341Z,21.36
2018-08-18T10:18:08.669Z,21.28
2018-08-18T10:20:35.033Z,21.33
2018-08-18T10:23:01.433Z,21.31
2018-08-18T10:25:27.786Z,21.39
2018-08-18T10:27:54.113Z,21.35
2018-08-18T10:30:20.479Z,21.30
2018-08-18T10:32:46.825Z,21.30
2018-08-18T10:35:13.208Z,21.28
2018-08-18T10:37:39.726Z,21.28
2018-08-18T10:40:06.089Z,21.28
2018-08-18T10:42:32.406Z,21.30
2018-08-18T10:44:58.743Z,21.31
2018-08-18T10:47:25.103Z,21.29
2018-08-18T10:49:51.571Z,21.32
2018-08-18T10:52:17.906Z,21.28
2018-08-18T10:54:44.259Z,21.27
2018-08-18T10:57:10.621Z,21.23
2018-08-18T10:59:36.971Z,21.25
2018-08-18T11:02:03.378Z,21.23
2018-08-18T11:04:29.765Z,21.27
2018-08-18T11:06:56.123Z,21.27
2018-08-18T11:09:22.479Z,21.25
2018-08-18T11:11:48.877Z,21.25
2018-08-18T11:14:15.203Z,21.24
2018-08-18T11:16:41.573Z,21.23
2018-08-18T11:19:07.929Z,21.25
2018-08-18T11:21:34.334Z,21.25
2018-08-18T11:24:00.687Z,21.24
2018-08-18T11:26:27.067Z,21.29
2018-08-18T11:28:53.563Z,21.29
2018-08-18T11:31:19.849Z,21.28
2018-08-18T11:33:46.224Z,21.27
2018-08-18T11:36:12.565Z,21.25
2018-08-18T11:38:38.904Z,21.25
2018-08-18T11:41:05.235Z,21.28
2018-08-18T11:43:31.638Z,21.30
2018-08-18T11:45:57.988Z,21.27
2018-08-18T11:48:24.391Z,21.31
2018-08-18T11:50:50.794Z,21.28
2018-08-18T11:53:17.193Z,21.29
2018-08-18T11:55:43.558Z,21.23
2018-08-18T11:58:09.905Z,21.24
2018-08-18T12:00:36.350Z,21.25
2018-08-18T12:03:02.787Z,21.23
2018-08-18T12:05:29.127Z,21.27
2018-08-18T12:07:55.456Z,21.30
2018-08-18T12:10:21.851Z,21.27
2018-08-18T12:12:48.229Z,21.28
2018-08-18T12:15:14.626Z,21.24
2018-08-18T12:17:40.971Z,21.25
2018-08-18T12:20:07.342Z,21.27
2018-08-18T12:22:33.748Z,21.24
2018-08-18T12:25:00.103Z,21.27
2018-08-18T12:27:26.463Z,21.20
2018-08-18T12:29:52.897Z,21.22
2018-08-18T12:32:19.293Z,21.31
2018-08-18T12:34:45.678Z,21.21
2018-08-18T12:37:12.053Z,21.23
2018-08-18T12:39:38.418Z,21.29
2018-08-18T12:42:04.923Z,21.25
2018-08-18T12:44:31.299Z,21.27
2018-08-18T12:46:57.705Z,21.23
2018-08-18T12:49:24.032Z,21.28
2018-08-18T12:51:50.679Z,21.25
2018-08-18T12:54:17.093Z,21.23
2018-08-18T12:56:43.445Z,21.29
2018-08-18T12:59:09.791Z,21.24
2018-08-18T13:01:36.190Z,21.23
2018-08-18T13:04:02.535Z,21.22
2018-08-18T13:06:28.856Z,21.23
2018-08-18T13:08:55.222Z,21.24
2018-08-18T13:11:21.670Z,21.21
2018-08-18T13:13:47.991Z,21.23
2018-08-18T13:16:14.315Z,21.24
2018-08-18T13:18:40.804Z,21.19
2018-08-18T13:21:07.096Z,21.21
2018-08-18T13:23:33.443Z,21.21
2018-08-18T13:25:59.788Z,21.22
2018-08-18T13:28:26.213Z,21.24
2018-08-18T13:30:52.643Z,21.22
2018-08-18T13:33:19.022Z,21.20
2018-08-18T13:38:17.830Z,21.19
2018-08-18T13:40:44.235Z,21.17
2018-08-18T13:43:10.640Z,21.21
2018-08-18T13:45:36.983Z,21.19
2018-08-18T13:48:03.305Z,21.19
2018-08-18T13:50:29.744Z,21.19
2018-08-18T13:52:56.118Z,21.16
2018-08-18T13:55:22.460Z,21.16
2018-08-18T13:57:48.834Z,21.18
2018-08-18T14:00:15.171Z,21.20
2018-08-18T14:02:41.531Z,21.17
2018-08-18T14:05:07.935Z,21.18
2018-08-18T14:07:34.353Z,21.21
2018-08-18T14:10:00.694Z,21.25
2018-08-18T14:12:27.046Z,21.17
2018-08-18T14:14:53.392Z,21.18
2018-08-18T14:17:19.840Z,21.17
2018-08-18T14:19:46.208Z,21.22
2018-08-18T14:22:12.586Z,21.16
2018-08-18T14:24:38.907Z,21.21
2018-08-18T14:27:05.234Z,21.21
2018-08-18T14:29:31.562Z,21.24
2018-08-18T14:31:57.889Z,21.18
2018-08-18T14:34:24.299Z,21.17
2018-08-18T14:36:50.644Z,21.21
2018-08-18T14:39:17.030Z,21.18
2018-08-18T14:41:43.391Z,21.24
2018-08-18T14:44:09.789Z,21.20
2018-08-18T14:46:36.227Z,21.18
2018-08-18T14:49:02.479Z,21.20
2018-08-18T14:51:28.841Z,21.19
2018-08-18T14:53:55.184Z,21.27
2018-08-18T14:56:21.550Z,21.18
2018-08-18T14:58:47.958Z,21.20
2018-08-18T15:01:14.313Z,21.20
2018-08-18T15:03:40.638Z,21.22
2018-08-18T15:06:06.969Z,21.20
2018-08-18T15:08:33.337Z,21.18
2018-08-18T15:10:59.749Z,21.23
2018-08-18T15:13:26.083Z,21.21
2018-08-18T15:15:52.470Z,21.21
2018-08-18T15:18:18.827Z,21.25
2018-08-18T15:20:45.207Z,21.23
2018-08-18T15:23:11.556Z,21.27
2018-08-18T15:25:37.901Z,21.27
2018-08-18T15:28:04.215Z,21.27
2018-08-18T15:30:30.583Z,21.32
2018-08-18T15:32:56.953Z,21.18
2018-08-18T15:35:23.347Z,21.20
2018-08-18T15:37:49.676Z,21.21
2018-08-18T15:40:16.130Z,21.19
2018-08-18T15:42:42.647Z,21.24
2018-08-18T15:45:08.958Z,21.25
2018-08-18T15:47:35.298Z,21.30
2018-08-18T15:50:01.671Z,21.24
2018-08-18T15:52:28.196Z,21.35
2018-08-18T15:54:54.534Z,21.28
2018-08-18T15:57:20.879Z,21.28
2018-08-18T15:59:47.221Z,21.23
2018-08-18T16:02:13.557Z,21.28
2018-08-18T16:04:39.932Z,21.25
2018-08-18T16:07:06.299Z,21.32
2018-08-18T16:09:32.646Z,21.24
2018-08-18T16:11:58.995Z,21.28
2018-08-18T16:14:25.358Z,21.20
2018-08-18T16:16:51.740Z,21.22
2018-08-18T16:19:18.175Z,21.27
2018-08-18T16:21:44.519Z,21.29
2018-08-18T16:24:10.860Z,21.22
2018-08-18T16:26:37.243Z,21.27
2018-08-18T16:29:03.618Z,21.23
2018-08-18T16:31:29.983Z,21.20
2018-08-18T16:33:56.388Z,21.29
2018-08-18T16:36:22.733Z,21.23
2018-08-18T16:38:49.087Z,21.28
2018-08-18T16:41:15.462Z,21.17
2018-08-18T16:43:41.800Z,21.18
2018-08-18T16:46:08.194Z,21.30
2018-08-18T16:48:34.526Z,21.19
2018-08-18T16:51:00.890Z,21.24
2018-08-18T16:53:27.216Z,21.30
2018-08-18T16:55:53.604Z,21.20
2018-08-18T16:58:20.134Z,21.22
2018-08-18T17:00:46.520Z,21.21
2018-08-18T17:03:12.888Z,21.31
2018-08-18T17:05:39.234Z,21.25
2018-08-18T17:08:05.586Z,21.21
2018-08-18T17:10:31.993Z,21.29
2018-08-18T17:12:58.352Z,21.29
2018-08-18T17:15:24.787Z,21.16
2018-08-18T17:17:51.189Z,21.25
2018-08-18T17:20:17.548Z,21.25
2018-08-18T17:22:43.911Z,21.24
2018-08-18T17:25:10.321Z,21.27
2018-08-18T17:27:36.719Z,21.23
2018-08-18T17:30:03.296Z,21.30
2018-08-18T17:32:29.607Z,21.21
2018-08-18T17:34:56.024Z,21.17
2018-08-18T17:37:22.380Z,21.18
2018-08-18T17:39:48.744Z,21.22
2018-08-18T17:42:15.732Z,21.21
2018-08-18T17:44:42.075Z,21.19
2018-08-18T17:47:08.414Z,21.20
2018-08-18T17:49:34.837Z,21.17
2018-08-18T17:52:01.230Z,21.10
2018-08-18T17:54:27.605Z,21.19
2018-08-18T17:56:53.971Z,21.17
2018-08-18T17:59:20.359Z,21.21
2018-08-18T18:01:46.690Z,21.15
2018-08-18T18:04:13.056Z,21.18
2018-08-18T18:06:39.464Z,21.17
2018-08-18T18:09:05.827Z,21.08
2018-08-18T18:11:32.223Z,21.10
2018-08-18T18:13:58.614Z,21.10
2018-08-18T18:16:24.986Z,21.03
2018-08-18T18:18:51.317Z,21.07
2018-08-18T18:21:17.712Z,21.09
2018-08-18T18:23:44.064Z,21.03
2018-08-18T18:26:10.437Z,21.07
2018-08-18T18:28:36.799Z,21.02
2018-08-18T18:31:03.133Z,21.04
2018-08-18T18:33:29.476Z,21.05
2018-08-18T18:35:55.842Z,20.95
2018-08-18T18:38:22.179Z,20.90
2018-08-18T18:40:48.546Z,21.04
2018-08-18T18:43:14.918Z,20.94
2018-08-18T18:45:41.304Z,20.95
2018-08-18T18:48:07.607Z,20.95
2018-08-18T18:50:33.973Z,21.01
2018-08-18T18:53:00.328Z,20.98
2018-08-18T18:55:26.797Z,20.96
2018-08-18T18:57:53.166Z,20.91
2018-08-18T19:00:19.552Z,20.95
2018-08-18T19:02:45.924Z,20.87
2018-08-18T19:05:12.258Z,20.96
2018-08-18T19:07:38.658Z,20.93
2018-08-18T19:10:05.075Z,20.92
2018-08-18T19:12:31.480Z,21.00
2018-08-18T19:14:57.902Z,20.92
2018-08-18T19:17:24.290Z,20.91
2018-08-18T19:19:50.655Z,20.88
2018-08-18T19:22:16.999Z,20.91
2018-08-18T19:24:43.337Z,20.85
2018-08-18T19:27:09.704Z,20.91
2018-08-18T19:29:36.079Z,20.85
2018-08-18T19:32:02.427Z,20.86
2018-08-18T19:34:28.842Z,20.84
2018-08-18T19:36:55.268Z,20.85
2018-08-18T19:39:21.594Z,20.86
2018-08-18T19:41:47.927Z,20.86
2018-08-18T19:44:14.302Z,20.78
2018-08-18T19:46:40.754Z,20.83
2018-08-18T19:49:07.214Z,20.85
2018-08-18T19:51:33.482Z,20.86
2018-08-18T19:53:59.893Z,20.79
2018-08-18T19:56:26.221Z,20.76
2018-08-18T19:58:52.570Z,20.83
2018-08-18T20:01:18.921Z,20.77
2018-08-18T20:03:45.259Z,20.71
2018-08-18T20:06:11.655Z,20.71
2018-08-18T20:08:38.015Z,20.73
2018-08-18T20:11:04.381Z,20.79
2018-08-18T20:13:30.706Z,20.77
2018-08-18T20:15:57.057Z,20.79
2018-08-18T20:18:23.509Z,20.75
2018-08-18T20:20:49.860Z,20.73
2018-08-18T20:23:16.228Z,20.73
2018-08-18T20:25:42.586Z,20.75
2018-08-18T20:28:08.949Z,20.72
2018-08-18T20:30:35.303Z,20.77
2018-08-18T20:33:01.700Z,20.72
2018-08-18T20:35:28.024Z,20.72
2018-08-18T20:37:54.339Z,20.76
2018-08-18T20:40:20.673Z,20.70
2018-08-18T20:42:47.079Z,20.72
2018-08-18T20:45:13.438Z,20.71
2018-08-18T20:47:39.781Z,20.64
2018-08-18T20:50:06.148Z,20.68
2018-08-18T20:52:32.545Z,20.68
2018-08-18T20:54:58.908Z,20.59
2018-08-18T20:57:25.319Z,20.66
2018-08-18T20:59:51.699Z,20.58
2018-08-18T21:02:18.058Z,20.62
2018-08-18T21:04:44.396Z,20.63
2018-08-18T21:07:10.740Z,20.63
2018-08-18T21:09:37.123Z,20.55
2018-08-18T21:12:03.470Z,20.53
2018-08-18T21:14:29.858Z,20.59
2018-08-18T21:16:56.230Z,20.59
2018-08-18T21:19:22.563Z,20.63
2018-08-18T21:21:49.076Z,20.59
2018-08-18T21:24:15.495Z,20.60
2018-08-18T21:26:41.830Z,20.58
2018-08-18T21:29:08.243Z,20.58
2018-08-18T21:31:34.589Z,20.59
2018-08-18T21:34:01.025Z,20.51
2018-08-18T21:36:27.385Z,20.50
2018-08-18T21:38:53.719Z,20.57
2018-08-18T21:41:20.095Z,20.56
2018-08-18T21:43:46.440Z,20.55
2018-08-18T21:46:12.772Z,20.44
2018-08-18T21:48:39.110Z,20.54
2018-08-18T21:51:05.512Z,20.51
2018-08-18T21:53:31.873Z,20.45
2018-08-18T21:55:59.058Z,20.39
2018-08-18T21:58:25.428Z,20.44
2018-08-18T22:00:51.779Z,20.51
2018-08-18T22:03:18.166Z,20.44
2018-08-18T22:05:44.523Z,20.54
2018-08-18T22:08:10.911Z,20.53
2018-08-18T22:10:37.247Z,20.46
2018-08-18T22:13:03.571Z,20.47
2018-08-18T22:15:29.935Z,20.53
2018-08-18T22:17:56.292Z,20.49
2018-08-18T22:20:22.632Z,20.45
2018-08-18T22:22:49.030Z,20.44
2018-08-18T22:25:15.326Z,20.47
2018-08-18T22:27:41.656Z,20.43
2018-08-18T22:30:08.020Z,20.42
2018-08-18T22:32:34.358Z,20.41
2018-08-18T22:35:00.721Z,20.39
2018-08-18T22:37:27.079Z,20.42
2018-08-18T22:39:53.443Z,20.34
2018-08-18T22:42:19.804Z,20.29
2018-08-18T22:44:46.171Z,20.43
2018-08-18T22:47:12.503Z,20.27
2018-08-18T22:49:38.878Z,20.40
2018-08-18T22:52:05.229Z,20.28
2018-08-18T22:54:31.632Z,20.34
2018-08-18T22:56:57.960Z,20.28
2018-08-18T22:59:24.290Z,20.21
2018-08-18T23:01:50.677Z,20.30
2018-08-18T23:04:17.015Z,20.34
2018-08-18T23:06:43.352Z,20.33
2018-08-18T23:09:09.719Z,20.33
2018-08-18T23:11:36.069Z,20.31
2018-08-18T23:14:02.456Z,20.31
2018-08-18T23:16:28.810Z,20.19
2018-08-18T23:18:55.138Z,20.28
2018-08-18T23:21:21.471Z,20.16
2018-08-18T23:23:47.875Z,20.30
2018-08-18T23:26:14.250Z,20.25
2018-08-18T23:28:40.595Z,20.29
2018-08-18T23:31:06.933Z,20.26
2018-08-18T23:33:33.273Z,20.30
2018-08-18T23:35:59.654Z,20.25
2018-08-18T23:38:26.009Z,20.27
2018-08-18T23:40:52.429Z,20.21
2018-08-18T23:43:18.769Z,20.31
2018-08-18T23:45:45.123Z,20.25
2018-08-18T23:48:11.453Z,20.19
2018-08-18T23:50:37.866Z,20.20
2018-08-18T23:53:04.208Z,20.22
2018-08-18T23:55:30.536Z,20.13
2018-08-18T23:57:56.870Z,20.20
